Time;durP1;ratioP1;P1;durP2;ratioP2;P2;SDS_P1;SDS_P2;PMS_P1;PMS_P2;Temp;Humidity;BMP_temperature;BMP_pressure;BME280_temperature;BME280_humidity;BME280_pressure;Samples;Min_cycle;Max_cycle;Signal;HPM_P1;HPM_P2
2022/05/18 00:01:09;;;;;;;;;;;;;;;;;;5093610;28;19955;-66
2022/05/18 00:03:55;;;;;;;;;;;;;;;;;;5093319;28;20362;-67
2022/05/18 00:06:40;;;;;;;;;;;;;;;;;;5093568;28;19916;-65
2022/05/18 00:09:26;;;;;;;;;;;;;;;;;;5098909;28;19912;-65
2022/05/18 00:12:11;;;;;;;;;;;;;;;;;;5095261;28;19908;-65
2022/05/18 00:14:57;;;;;;;;;;;;;;;;;;5092188;28;20286;-64
2022/05/18 00:17:42;;;;;;;;;;;;;;;;;;5099250;28;19969;-65
2022/05/18 00:20:28;;;;;;;;;;;;;;;;;;5107661;28;19951;-64
2022/05/18 00:23:13;;;;;;;;;;;;;;;;;;5116112;27;19911;-67
2022/05/18 00:25:59;;;;;;;;;;;;;;;;;;5115296;28;19927;-63
2022/05/18 00:28:44;;;;;;;;;;;;;;;;;;5114922;28;19916;-63
2022/05/18 00:31:29;;;;;;;;;;;;;;;;;;5115684;27;19912;-63
2022/05/18 00:34:16;;;;;;;;;;;;;;;;;;5111629;28;19947;-63
2022/05/18 00:37:01;;;;;;;;;;;;;;;;;;5121852;27;20225;-62
2022/05/18 00:39:47;;;;;;;;;;;;;;;;;;5117626;27;20282;-74
2022/05/18 00:42:32;;;;;;;;;;;;;;;;;;5107354;28;19943;-65
2022/05/18 00:45:17;;;;;;;;;;;;;;;;;;5115363;27;19973;-64
2022/05/18 00:48:03;;;;;;;;;;;;;;;;;;5115610;27;19965;-65
2022/05/18 00:50:48;;;;;;;;;;;;;;;;;;5105757;27;20255;-65
2022/05/18 00:53:34;;;;;;;;;;;;;;;;;;5113688;28;19957;-66
2022/05/18 00:56:19;;;;;;;;;;;;;;;;;;5115050;27;19907;-66
2022/05/18 00:59:05;;;;;;;;;;;;;;;;;;5114943;27;19907;-66
2022/05/18 01:01:51;;;;;;;;;;;;;;;;;;5113404;28;19915;-63
2022/05/18 01:04:36;;;;;;;;;;;;;;;;;;5112874;28;20016;-63
2022/05/18 01:07:22;;;;;;;;;;;;;;;;;;5100661;27;19938;-63
2022/05/18 01:10:07;;;;;;;;;;;;;;;;;;5114087;28;19958;-63
2022/05/18 01:12:53;;;;;;;;;;;;;;;;;;5108427;28;19908;-63
2022/05/18 01:15:38;;;;;;;;;;;;;;;;;;5109145;28;19990;-64
2022/05/18 01:18:24;;;;;;;;;;;;;;;;;;5114366;27;19920;-65
2022/05/18 01:21:09;;;;;;;;;;;;;;;;;;5114742;27;20270;-73
2022/05/18 01:23:55;;;;;;;;;;;;;;;;;;5105555;28;19950;-73
2022/05/18 01:26:40;;;;;;;;;;;;;;;;;;5109927;28;20348;-72
2022/05/18 01:29:26;;;;;;;;;;;;;;;;;;5114567;27;19929;-74
2022/05/18 01:32:11;;;;;;;;;;;;;;;;;;5114633;27;19915;-74
2022/05/18 01:34:56;;;;;;;;;;;;;;;;;;5113537;28;19908;-64
2022/05/18 01:37:42;;;;;;;;;;;;;;;;;;5118926;27;19911;-73
2022/05/18 01:40:27;;;;;;;;;;;;;;;;;;5110250;28;20263;-67
2022/05/18 01:43:13;;;;;;;;;;;;;;;;;;5114763;27;19929;-65
2022/05/18 01:45:58;;;;;;;;;;;;;;;;;;5102125;28;19914;-66
2022/05/18 01:48:45;;;;;;;;;;;;;;;;;;5086842;27;19924;-65
2022/05/18 01:51:30;;;;;;;;;;;;;;;;;;5106003;28;19919;-66
2022/05/18 01:54:16;;;;;;;;;;;;;;;;;;5112290;28;20251;-67
2022/05/18 01:57:01;;;;;;;;;;;;;;;;;;5102423;28;20293;-66
2022/05/18 01:59:46;;;;;;;;;;;;;;;;;;5112500;28;19912;-67
2022/05/18 02:02:32;;;;;;;;;;;;;;;;;;5099150;28;20258;-66
2022/05/18 02:05:17;;;;;;;;;;;;;;;;;;5097807;28;20005;-66
2022/05/18 02:08:03;;;;;;;;;;;;;;;;;;5102557;27;19915;-66
2022/05/18 02:10:48;;;;;;;;;;;;;;;;;;5111275;27;20277;-67
2022/05/18 02:13:34;;;;;;;;;;;;;;;;;;5097990;28;19992;-66
2022/05/18 02:16:19;;;;;;;;;;;;;;;;;;5097187;28;19940;-71
2022/05/18 02:19:05;;;;;;;;;;;;;;;;;;5097961;28;19919;-70
2022/05/18 02:21:51;;;;;;;;;;;;;;;;;;5111421;28;20374;-70
2022/05/18 02:24:36;;;;;;;;;;;;;;;;;;5110006;27;19916;-70
2022/05/18 02:27:21;;;;;;;;;;;;;;;;;;5099024;28;19942;-69
2022/05/18 02:30:07;;;;;;;;;;;;;;;;;;5112785;28;19912;-66
2022/05/18 02:32:52;;;;;;;;;;;;;;;;;;5113349;27;20373;-71
2022/05/18 02:35:40;;;;;;;;;;;;;;;;;;5113449;28;19926;-67
2022/05/18 02:38:26;;;;;;;;;;;;;;;;;;5125923;27;19943;-67
2022/05/18 02:41:11;;;;;;;;;;;;;;;;;;5109230;28;19930;-67
2022/05/18 02:43:57;;;;;;;;;;;;;;;;;;5114164;28;19919;-67
2022/05/18 02:46:43;;;;;;;;;;;;;;;;;;5111778;28;20347;-66
2022/05/18 02:49:28;;;;;;;;;;;;;;;;;;5113512;28;20278;-64
2022/05/18 02:52:14;;;;;;;;;;;;;;;;;;5097325;28;19919;-65
2022/05/18 02:58:03;;;;;;;;;;;;;;;;;;5111008;28;19908;-64
2022/05/18 03:00:49;;;;;;;;;;;;;;;;;;5098136;28;19915;-64
2022/05/18 03:03:34;;;;;;;;;;;;;;;;;;5088298;28;19931;-62
2022/05/18 03:06:20;;;;;;;;;;;;;;;;;;5110955;28;19914;-62
2022/05/18 03:09:05;;;;;;;;;;;;;;;;;;5127817;28;19918;-66
2022/05/18 03:11:51;;;;;;;;;;;;;;;;;;5120612;28;19907;-65
2022/05/18 03:14:36;;;;;;;;;;;;;;;;;;5129816;28;19911;-65
2022/05/18 03:17:22;;;;;;;;;;;;;;;;;;5115110;28;20386;-65
2022/05/18 03:20:07;;;;;;;;;;;;;;;;;;5098463;28;19915;-65
2022/05/18 03:25:57;;;;;;;;;;;;;;;;;;5122132;27;19918;-64
2022/05/18 03:28:42;;;;;;;;;;;;;;;;;;5128276;27;19970;-64
2022/05/18 03:31:28;;;;;;;;;;;;;;;;;;5117513;27;19930;-63
2022/05/18 03:34:13;;;;;;;;;;;;;;;;;;5120003;27;19956;-64
2022/05/18 03:36:59;;;;;;;;;;;;;;;;;;5114623;28;19994;-64
2022/05/18 03:39:45;;;;;;;;;;;;;;;;;;5122543;27;19907;-65
2022/05/18 03:42:30;;;;;;;;;;;;;;;;;;5104739;28;19908;-66
2022/05/18 03:45:16;;;;;;;;;;;;;;;;;;5131020;27;19914;-66
2022/05/18 03:48:01;;;;;;;;;;;;;;;;;;5100470;28;19916;-66
2022/05/18 03:50:46;;;;;;;;;;;;;;;;;;5102002;28;19912;-67
2022/05/18 03:53:32;;;;;;;;;;;;;;;;;;5116424;27;19908;-65
2022/05/18 03:56:18;;;;;;;;;;;;;;;;;;5115960;27;19912;-67
2022/05/18 03:59:03;;;;;;;;;;;;;;;;;;5114283;28;19915;-67
2022/05/18 04:01:48;;;;;;;;;;;;;;;;;;5102566;28;19908;-65
2022/05/18 04:04:34;;;;;;;;;;;;;;;;;;5116248;27;19912;-69
2022/05/18 04:07:19;;;;;;;;;;;;;;;;;;5117566;27;20007;-66
2022/05/18 04:10:06;;;;;;;;;;;;;;;;;;5101491;28;19907;-66
2022/05/18 04:12:51;;;;;;;;;;;;;;;;;;5115936;27;20013;-67
2022/05/18 04:15:37;;;;;;;;;;;;;;;;;;5124738;27;19911;-66
2022/05/18 04:18:22;;;;;;;;;;;;;;;;;;5116270;27;19924;-66
2022/05/18 04:21:08;;;;;;;;;;;;;;;;;;5128697;27;19908;-67
2022/05/18 04:23:55;;;;;;;;;;;;;;;;;;5115253;27;19955;-66
2022/05/18 04:26:40;;;;;;;;;;;;;;;;;;5114784;27;20010;-67
2022/05/18 04:29:26;;;;;;;;;;;;;;;;;;5113490;27;20331;-66
2022/05/18 04:32:11;;;;;;;;;;;;;;;;;;5123318;27;19907;-66
2022/05/18 04:34:57;;;;;;;;;;;;;;;;;;5111128;28;19934;-65
2022/05/18 04:37:42;;;;;;;;;;;;;;;;;;5121725;27;19991;-67
2022/05/18 04:40:27;;;;;;;;;;;;;;;;;;5112214;28;19964;-65
2022/05/18 04:43:13;;;;;;;;;;;;;;;;;;5127619;27;19908;-68
2022/05/18 04:45:58;;;;;;;;;;;;;;;;;;5125703;27;19912;-64
2022/05/18 04:48:44;;;;;;;;;;;;;;;;;;5118093;27;19960;-66
2022/05/18 04:51:29;;;;;;;;;;;;;;;;;;5122437;27;20011;-66
2022/05/18 04:54:15;;;;;;;;;;;;;;;;;;5113369;28;19912;-66
2022/05/18 04:57:00;;;;;;;;;;;;;;;;;;5113135;28;19915;-66
2022/05/18 04:59:46;;;;;;;;;;;;;;;;;;5114193;28;19970;-63
2022/05/18 05:02:31;;;;;;;;;;;;;;;;;;5099173;28;19991;-67
2022/05/18 05:05:16;;;;;;;;;;;;;;;;;;5104830;28;19918;-66
2022/05/18 05:08:02;;;;;;;;;;;;;;;;;;5117374;27;20299;-66
2022/05/18 05:10:48;;;;;;;;;;;;;;;;;;5113245;28;19912;-67
2022/05/18 05:13:33;;;;;;;;;;;;;;;;;;5109758;27;19982;-67
2022/05/18 05:16:19;;;;;;;;;;;;;;;;;;5119193;27;19947;-66
2022/05/18 05:19:05;;;;;;;;;;;;;;;;;;5113355;28;19920;-66
2022/05/18 05:21:50;;;;;;;;;;;;;;;;;;5100180;28;19908;-66
2022/05/18 05:24:36;;;;;;;;;;;;;;;;;;5113900;27;19915;-66
2022/05/18 05:27:21;;;;;;;;;;;;;;;;;;5112368;28;20263;-67
2022/05/18 05:30:08;;;;;;;;;;;;;;;;;;5114394;27;19908;-63
2022/05/18 05:32:54;;;;;;;;;;;;;;;;;;5121780;27;20382;-66
2022/05/18 05:35:42;;;;;;;;;;;;;;;;;;5102035;28;19912;-66
2022/05/18 05:38:28;;;;;;;;;;;;;;;;;;5120507;27;20429;-66
2022/05/18 05:41:13;;;;;;;;;;;;;;;;;;5112144;28;19994;-66
2022/05/18 05:43:59;;;;;;;;;;;;;;;;;;5100266;28;19908;-65
2022/05/18 05:46:44;;;;;;;;;;;;;;;;;;5113738;27;20362;-65
2022/05/18 05:49:29;;;;;;;;;;;;;;;;;;5123750;27;19960;-64
2022/05/18 05:52:15;;;;;;;;;;;;;;;;;;5097383;28;20316;-66
2022/05/18 05:55:00;;;;;;;;;;;;;;;;;;5099946;28;19915;-63
2022/05/18 05:57:46;;;;;;;;;;;;;;;;;;5095889;28;19934;-64
2022/05/18 06:00:31;;;;;;;;;;;;;;;;;;5112435;28;19998;-65
2022/05/18 06:03:17;;;;;;;;;;;;;;;;;;5113338;27;19944;-65
2022/05/18 06:06:02;;;;;;;;;;;;;;;;;;5113204;28;19908;-65
2022/05/18 06:08:50;;;;;;;;;;;;;;;;;;5100020;28;19922;-64
2022/05/18 06:11:36;;;;;;;;;;;;;;;;;;5112756;28;19995;-64
2022/05/18 06:14:21;;;;;;;;;;;;;;;;;;5113437;27;19907;-65
2022/05/18 06:17:07;;;;;;;;;;;;;;;;;;5113090;28;19933;-65
2022/05/18 06:19:52;;;;;;;;;;;;;;;;;;5112991;28;20022;-66
2022/05/18 06:22:38;;;;;;;;;;;;;;;;;;5113349;27;19907;-65
2022/05/18 06:25:23;;;;;;;;;;;;;;;;;;5099134;28;20360;-65
2022/05/18 06:28:09;;;;;;;;;;;;;;;;;;5111773;28;20003;-64
2022/05/18 06:30:54;;;;;;;;;;;;;;;;;;5108538;27;19914;-73
2022/05/18 06:33:40;;;;;;;;;;;;;;;;;;5121130;27;19991;-62
2022/05/18 06:36:26;;;;;;;;;;;;;;;;;;5113327;27;20308;-63
2022/05/18 06:39:11;;;;;;;;;;;;;;;;;;5120866;27;20303;-62
2022/05/18 06:41:57;;;;;;;;;;;;;;;;;;5111191;28;19995;-62
2022/05/18 06:44:42;;;;;;;;;;;;;;;;;;5124647;28;19961;-62
2022/05/18 06:47:28;;;;;;;;;;;;;;;;;;5112870;28;20007;-62
2022/05/18 06:50:13;;;;;;;;;;;;;;;;;;5114015;28;19908;-64
2022/05/18 06:52:58;;;;;;;;;;;;;;;;;;5129054;28;19908;-62
2022/05/18 06:55:44;;;;;;;;;;;;;;;;;;5097174;28;20374;-61
2022/05/18 06:58:30;;;;;;;;;;;;;;;;;;5106057;28;20018;-62
2022/05/18 07:01:15;;;;;;;;;;;;;;;;;;5108698;28;19930;-63
2022/05/18 07:04:01;;;;;;;;;;;;;;;;;;5114149;28;20000;-62
2022/05/18 07:06:46;;;;;;;;;;;;;;;;;;5116684;28;20423;-63
2022/05/18 07:09:32;;;;;;;;;;;;;;;;;;5104156;28;19923;-65
2022/05/18 07:12:18;;;;;;;;;;;;;;;;;;5115176;28;19912;-67
2022/05/18 07:15:04;;;;;;;;;;;;;;;;;;5116757;28;19978;-64
2022/05/18 07:17:49;;;;;;;;;;;;;;;;;;5114147;27;19958;-65
2022/05/18 07:20:34;;;;;;;;;;;;;;;;;;5107992;28;19918;-67
2022/05/18 07:23:20;;;;;;;;;;;;;;;;;;5107346;27;19919;-65
2022/05/18 07:26:05;;;;;;;;;;;;;;;;;;5109973;28;19912;-62
2022/05/18 07:28:51;;;;;;;;;;;;;;;;;;5110881;27;19927;-60
2022/05/18 07:34:41;;;;;;;;;;;;;;;;;;5109806;27;19973;-55
2022/05/18 07:37:26;;;;;;;;;;;;;;;;;;5108086;27;19912;-55
2022/05/18 07:40:12;;;;;;;;;;;;;;;;;;5108640;28;19919;-58
2022/05/18 07:42:57;;;;;;;;;;;;;;;;;;5111022;28;19916;-62
2022/05/18 07:45:43;;;;;;;;;;;;;;;;;;5108831;28;19944;-63
2022/05/18 07:48:28;;;;;;;;;;;;;;;;;;5096110;28;19980;-59
2022/05/18 07:51:14;;;;;;;;;;;;;;;;;;5110126;27;19918;-59
2022/05/18 07:54:00;;;;;;;;;;;;;;;;;;5105983;28;19978;-59
2022/05/18 07:56:45;;;;;;;;;;;;;;;;;;5110502;28;19916;-58
2022/05/18 07:59:31;;;;;;;;;;;;;;;;;;5108681;27;19931;-62
2022/05/18 08:02:16;;;;;;;;;;;;;;;;;;5110644;28;19911;-64
2022/05/18 08:05:02;;;;;;;;;;;;;;;;;;5104457;28;19995;-64
2022/05/18 08:07:47;;;;;;;;;;;;;;;;;;5109257;27;19927;-63
2022/05/18 08:16:41;;;;;;;;;;;;;;;;;;5103358;27;21112;-64
2022/05/18 08:19:27;;;;;;;;;;;;;;;;;;5103441;27;19973;-65
2022/05/18 08:22:12;;;;;;;;;;;;;;;;;;5107753;27;19934;-66
2022/05/18 08:24:58;;;;;;;;;;;;;;;;;;5114775;27;19947;-65
2022/05/18 08:27:43;;;;;;;;;;;;;;;;;;5107431;27;19927;-68
2022/05/18 08:30:30;;;;;;;;;;;;;;;;;;5106705;28;19920;-67
2022/05/18 08:33:16;;;;;;;;;;;;;;;;;;5111238;27;20301;-66
2022/05/18 08:36:01;;;;;;;;;;;;;;;;;;5117631;27;19927;-66
2022/05/18 08:38:47;;;;;;;;;;;;;;;;;;5105574;27;19922;-62
2022/05/18 08:41:32;;;;;;;;;;;;;;;;;;5109523;27;19911;-56
2022/05/18 08:44:18;;;;;;;;;;;;;;;;;;5111153;27;19916;-55
2022/05/18 08:47:05;;;;;;;;;;;;;;;;;;5108992;28;20082;-54
2022/05/18 08:49:51;;;;;;;;;;;;;;;;;;5103305;27;20387;-58
2022/05/18 08:52:36;;;;;;;;;;;;;;;;;;5101381;28;20041;-58
2022/05/18 08:55:22;;;;;;;;;;;;;;;;;;5107259;28;19995;-58
2022/05/18 08:58:07;;;;;;;;;;;;;;;;;;5103914;27;19961;-60
2022/05/18 09:00:53;;;;;;;;;;;;;;;;;;5087846;27;19911;-65
2022/05/18 09:03:38;;;;;;;;;;;;;;;;;;5109999;27;19965;-65
2022/05/18 09:06:24;;;;;;;;;;;;;;;;;;5112350;28;20010;-64
2022/05/18 09:12:16;;;;;;;;;;;;;;;;;;5073883;27;19943;-67
2022/05/18 09:15:01;;;;;;;;;;;;;;;;;;5103546;27;19970;-65
2022/05/18 09:17:47;;;;;;;;;;;;;;;;;;5112972;27;20313;-62
2022/05/18 09:20:32;;;;;;;;;;;;;;;;;;5109080;27;19965;-60
2022/05/18 09:23:18;;;;;;;;;;;;;;;;;;5112588;27;19916;-59
2022/05/18 09:26:03;;;;;;;;;;;;;;;;;;5108042;27;19911;-60
2022/05/18 09:28:49;;;;;;;;;;;;;;;;;;5103123;27;20371;-60
2022/05/18 09:31:35;;;;;;;;;;;;;;;;;;5106121;28;20324;-59
2022/05/18 09:34:20;;;;;;;;;;;;;;;;;;5113315;27;19912;-72
2022/05/18 09:37:07;;;;;;;;;;;;;;;;;;5112268;27;20270;-68
2022/05/18 09:39:52;;;;;;;;;;;;;;;;;;5108118;28;19912;-68
2022/05/18 09:42:37;;;;;;;;;;;;;;;;;;5111805;27;20342;-68
2022/05/18 09:45:23;;;;;;;;;;;;;;;;;;5109903;27;19912;-67
2022/05/18 09:48:09;;;;;;;;;;;;;;;;;;5103878;28;19920;-67
2022/05/18 09:50:54;;;;;;;;;;;;;;;;;;5102963;28;19986;-67
2022/05/18 09:53:40;;;;;;;;;;;;;;;;;;5111048;27;19924;-64
2022/05/18 09:56:25;;;;;;;;;;;;;;;;;;5111338;27;19965;-63
2022/05/18 09:59:11;;;;;;;;;;;;;;;;;;5102806;28;19919;-63
2022/05/18 10:08:05;;;;;;;;;;;;;;;;;;5107974;28;20006;-65
2022/05/18 10:10:51;;;;;;;;;;;;;;;;;;5102876;28;19919;-63
2022/05/18 10:13:36;;;;;;;;;;;;;;;;;;5102885;28;19912;-58
2022/05/18 10:16:22;;;;;;;;;;;;;;;;;;5108350;27;19919;-59
2022/05/18 10:19:07;;;;;;;;;;;;;;;;;;5109270;28;19924;-58
2022/05/18 10:21:53;;;;;;;;;;;;;;;;;;5105553;28;20377;-55
2022/05/18 10:24:39;;;;;;;;;;;;;;;;;;5109219;28;19911;-61
2022/05/18 10:27:24;;;;;;;;;;;;;;;;;;5105617;28;19926;-59
2022/05/18 10:30:10;;;;;;;;;;;;;;;;;;5111379;28;20045;-60
2022/05/18 10:32:55;;;;;;;;;;;;;;;;;;5111746;28;19907;-63
2022/05/18 10:35:41;;;;;;;;;;;;;;;;;;5107788;28;19912;-63
2022/05/18 10:38:26;;;;;;;;;;;;;;;;;;5110335;27;19926;-64
2022/05/18 10:41:12;;;;;;;;;;;;;;;;;;5106589;28;19918;-63
2022/05/18 10:43:57;;;;;;;;;;;;;;;;;;5103229;28;19985;-64
2022/05/18 10:46:43;;;;;;;;;;;;;;;;;;5110813;28;19919;-64
2022/05/18 10:49:28;;;;;;;;;;;;;;;;;;5108096;28;20405;-69
2022/05/18 10:52:14;;;;;;;;;;;;;;;;;;5108547;28;19912;-62
2022/05/18 10:54:59;;;;;;;;;;;;;;;;;;5110612;28;19924;-63
2022/05/18 10:57:44;;;;;;;;;;;;;;;;;;5109600;28;19922;-63
2022/05/18 11:00:30;;;;;;;;;;;;;;;;;;5109770;28;19954;-62
2022/05/18 11:03:15;;;;;;;;;;;;;;;;;;5107361;28;20359;-63
2022/05/18 11:06:01;;;;;;;;;;;;;;;;;;5112164;28;19984;-64
2022/05/18 11:08:46;;;;;;;;;;;;;;;;;;5110419;28;20022;-65
2022/05/18 11:11:32;;;;;;;;;;;;;;;;;;5107778;28;19918;-65
2022/05/18 11:14:19;;;;;;;;;;;;;;;;;;5106824;28;19990;-63
2022/05/18 11:17:04;;;;;;;;;;;;;;;;;;5110050;28;19938;-63
2022/05/18 11:19:50;;;;;;;;;;;;;;;;;;5106961;28;19920;-66
2022/05/18 11:22:35;;;;;;;;;;;;;;;;;;5108071;28;19919;-64
2022/05/18 11:25:21;;;;;;;;;;;;;;;;;;5107681;28;20365;-67
2022/05/18 11:28:06;;;;;;;;;;;;;;;;;;5102555;28;20001;-67
2022/05/18 11:30:51;;;;;;;;;;;;;;;;;;5105182;28;19912;-67
2022/05/18 11:33:38;;;;;;;;;;;;;;;;;;5091085;28;19920;-61
2022/05/18 11:36:24;;;;;;;;;;;;;;;;;;5090044;28;19935;-61
2022/05/18 11:39:11;;;;;;;;;;;;;;;;;;5109164;28;19912;-62
2022/05/18 11:41:57;;;;;;;;;;;;;;;;;;5096633;28;19916;-61
2022/05/18 11:44:42;;;;;;;;;;;;;;;;;;5109533;28;19912;-61
2022/05/18 11:47:27;;;;;;;;;;;;;;;;;;5105521;28;19967;-68
2022/05/18 11:50:13;;;;;;;;;;;;;;;;;;5107040;28;19919;-68
2022/05/18 11:52:58;;;;;;;;;;;;;;;;;;5110019;28;19919;-70
2022/05/18 11:55:44;;;;;;;;;;;;;;;;;;5111105;27;19973;-68
2022/05/18 11:58:44;;;;;;;;;;;;;;;;;;5101991;28;19912;-70
2022/05/18 12:01:30;;;;;;;;;;;;;;;;;;5111806;28;19962;-61
2022/05/18 12:04:15;;;;;;;;;;;;;;;;;;5110495;27;19912;-64
2022/05/18 12:07:01;;;;;;;;;;;;;;;;;;5109992;27;19915;-63
2022/05/18 12:09:47;;;;;;;;;;;;;;;;;;5116352;27;19922;-63
2022/05/18 12:12:32;;;;;;;;;;;;;;;;;;5105589;27;20358;-64
2022/05/18 12:15:18;;;;;;;;;;;;;;;;;;5101291;28;19947;-63
2022/05/18 12:18:03;;;;;;;;;;;;;;;;;;5105242;27;19980;-63
2022/05/18 12:20:49;;;;;;;;;;;;;;;;;;5112016;28;19950;-61
2022/05/18 12:23:34;;;;;;;;;;;;;;;;;;5109371;28;19957;-62
2022/05/18 12:26:21;;;;;;;;;;;;;;;;;;5108776;27;19923;-61
2022/05/18 12:29:06;;;;;;;;;;;;;;;;;;5113716;28;19920;-62
2022/05/18 12:31:52;;;;;;;;;;;;;;;;;;5097002;28;19964;-62
2022/05/18 12:34:37;;;;;;;;;;;;;;;;;;5123218;27;19916;-63
2022/05/18 12:37:23;;;;;;;;;;;;;;;;;;5106998;27;20568;-64
2022/05/18 12:40:08;;;;;;;;;;;;;;;;;;5107273;27;19957;-62
2022/05/18 12:42:54;;;;;;;;;;;;;;;;;;5111503;27;19934;-62
2022/05/18 12:45:39;;;;;;;;;;;;;;;;;;5101770;28;19936;-61
2022/05/18 12:48:25;;;;;;;;;;;;;;;;;;5110216;27;19927;-61
2022/05/18 12:51:10;;;;;;;;;;;;;;;;;;5101121;28;20437;-62
2022/05/18 12:53:55;;;;;;;;;;;;;;;;;;5115012;27;20366;-62
2022/05/18 12:56:42;;;;;;;;;;;;;;;;;;5107300;28;19912;-67
2022/05/18 12:59:27;;;;;;;;;;;;;;;;;;5117796;27;20006;-61
2022/05/18 13:02:13;;;;;;;;;;;;;;;;;;5111909;28;19919;-62
2022/05/18 13:04:59;;;;;;;;;;;;;;;;;;5097984;28;20324;-61
2022/05/18 13:07:44;;;;;;;;;;;;;;;;;;5101706;27;19919;-62
2022/05/18 13:10:30;;;;;;;;;;;;;;;;;;5108691;28;19990;-62
2022/05/18 13:13:15;;;;;;;;;;;;;;;;;;5108472;28;19912;-62
2022/05/18 13:16:01;;;;;;;;;;;;;;;;;;5103216;28;19915;-65
2022/05/18 13:18:47;;;;;;;;;;;;;;;;;;5108806;28;20029;-63
2022/05/18 13:21:32;;;;;;;;;;;;;;;;;;5109135;27;19912;-64
2022/05/18 13:24:18;;;;;;;;;;;;;;;;;;5112951;28;19934;-63
2022/05/18 13:27:05;;;;;;;;;;;;;;;;;;5111570;27;20006;-65
2022/05/18 13:29:51;;;;;;;;;;;;;;;;;;5107343;28;19934;-63
2022/05/18 13:32:36;;;;;;;;;;;;;;;;;;5108936;28;19926;-64
2022/05/18 13:35:21;;;;;;;;;;;;;;;;;;5113143;28;19915;-65
2022/05/18 13:38:07;;;;;;;;;;;;;;;;;;5109055;27;19943;-63
2022/05/18 13:40:52;;;;;;;;;;;;;;;;;;5105794;28;19918;-62
2022/05/18 13:43:38;;;;;;;;;;;;;;;;;;5109458;27;19935;-63
2022/05/18 13:46:23;;;;;;;;;;;;;;;;;;5110174;28;19995;-62
2022/05/18 13:49:09;;;;;;;;;;;;;;;;;;5104124;27;19927;-63
2022/05/18 13:51:54;;;;;;;;;;;;;;;;;;5102470;28;19919;-64
2022/05/18 13:54:40;;;;;;;;;;;;;;;;;;5103611;28;19916;-67
2022/05/18 13:57:25;;;;;;;;;;;;;;;;;;5102859;27;19911;-69
2022/05/18 14:00:10;;;;;;;;;;;;;;;;;;5105395;28;19918;-70
2022/05/18 14:02:56;;;;;;;;;;;;;;;;;;5104713;27;20271;-69
2022/05/18 14:05:41;;;;;;;;;;;;;;;;;;5107473;27;19912;-69
2022/05/18 14:08:30;;;;;;;;;;;;;;;;;;5101359;28;20473;-67
2022/05/18 14:11:16;;;;;;;;;;;;;;;;;;5111186;27;19918;-64
2022/05/18 14:14:01;;;;;;;;;;;;;;;;;;5117098;27;19919;-66
2022/05/18 14:16:47;;;;;;;;;;;;;;;;;;5106364;27;19997;-65
2022/05/18 14:19:32;;;;;;;;;;;;;;;;;;5107583;28;20007;-64
2022/05/18 14:22:18;;;;;;;;;;;;;;;;;;5107183;27;19935;-63
2022/05/18 14:25:03;;;;;;;;;;;;;;;;;;5103725;28;20362;-65
2022/05/18 14:27:49;;;;;;;;;;;;;;;;;;5110158;28;19955;-64
2022/05/18 14:30:34;;;;;;;;;;;;;;;;;;5102560;28;19912;-68
2022/05/18 14:33:20;;;;;;;;;;;;;;;;;;5113553;27;20372;-64
2022/05/18 14:36:05;;;;;;;;;;;;;;;;;;5099592;28;20289;-65
2022/05/18 14:38:51;;;;;;;;;;;;;;;;;;5113394;27;19914;-65
2022/05/18 14:41:36;;;;;;;;;;;;;;;;;;5106460;28;20355;-64
2022/05/18 14:44:21;;;;;;;;;;;;;;;;;;5107551;28;20370;-65
2022/05/18 14:47:07;;;;;;;;;;;;;;;;;;5105087;28;19964;-63
2022/05/18 14:49:52;;;;;;;;;;;;;;;;;;5103089;27;20279;-63
2022/05/18 14:52:38;;;;;;;;;;;;;;;;;;5090687;28;19923;-62
2022/05/18 14:55:24;;;;;;;;;;;;;;;;;;5107550;28;19908;-64
2022/05/18 14:58:09;;;;;;;;;;;;;;;;;;5111147;28;19955;-64
2022/05/18 15:00:55;;;;;;;;;;;;;;;;;;5104115;28;19919;-63
2022/05/18 15:03:41;;;;;;;;;;;;;;;;;;5086996;28;19908;-62
2022/05/18 15:06:27;;;;;;;;;;;;;;;;;;5107853;28;20011;-64
2022/05/18 15:09:12;;;;;;;;;;;;;;;;;;5118539;28;19919;-65
2022/05/18 15:11:58;;;;;;;;;;;;;;;;;;5110768;28;20425;-65
2022/05/18 15:14:43;;;;;;;;;;;;;;;;;;5111076;28;19911;-64
2022/05/18 15:17:29;;;;;;;;;;;;;;;;;;5106734;28;19966;-68
2022/05/18 15:20:14;;;;;;;;;;;;;;;;;;5109323;28;19918;-64
2022/05/18 15:23:00;;;;;;;;;;;;;;;;;;5110574;28;20294;-64
2022/05/18 15:25:45;;;;;;;;;;;;;;;;;;5116801;27;19941;-63
2022/05/18 15:28:30;;;;;;;;;;;;;;;;;;5111431;27;19919;-63
2022/05/18 15:31:16;;;;;;;;;;;;;;;;;;5117467;27;20003;-62
2022/05/18 15:34:01;;;;;;;;;;;;;;;;;;5108541;27;19995;-62
2022/05/18 15:36:47;;;;;;;;;;;;;;;;;;5112273;27;19969;-63
2022/05/18 15:39:32;;;;;;;;;;;;;;;;;;5113307;27;19911;-62
2022/05/18 15:42:18;;;;;;;;;;;;;;;;;;5121753;27;19933;-62
2022/05/18 15:45:03;;;;;;;;;;;;;;;;;;5127563;27;20323;-69
2022/05/18 15:47:49;;;;;;;;;;;;;;;;;;5124022;27;20367;-69
2022/05/18 15:50:35;;;;;;;;;;;;;;;;;;5116885;27;19914;-68
2022/05/18 15:53:20;;;;;;;;;;;;;;;;;;5112595;27;19912;-68
2022/05/18 15:56:06;;;;;;;;;;;;;;;;;;5113962;27;19953;-68
2022/05/18 15:58:51;;;;;;;;;;;;;;;;;;5113981;27;19916;-69
2022/05/18 16:01:37;;;;;;;;;;;;;;;;;;5114913;27;19930;-68
2022/05/18 16:04:22;;;;;;;;;;;;;;;;;;5104919;28;19912;-62
2022/05/18 16:07:08;;;;;;;;;;;;;;;;;;5115423;27;19920;-65
2022/05/18 16:09:53;;;;;;;;;;;;;;;;;;5108740;27;20002;-65
2022/05/18 16:12:39;;;;;;;;;;;;;;;;;;5105093;27;19974;-64
2022/05/18 16:15:24;;;;;;;;;;;;;;;;;;5122930;27;20308;-65
2022/05/18 16:18:10;;;;;;;;;;;;;;;;;;5114154;27;19920;-64
2022/05/18 16:20:55;;;;;;;;;;;;;;;;;;5097777;28;19911;-63
2022/05/18 16:23:41;;;;;;;;;;;;;;;;;;5097811;28;19912;-62
2022/05/18 16:26:26;;;;;;;;;;;;;;;;;;5112555;27;19912;-64
2022/05/18 16:29:12;;;;;;;;;;;;;;;;;;5115110;27;20317;-63
2022/05/18 16:31:57;;;;;;;;;;;;;;;;;;5114628;27;19916;-63
2022/05/18 16:34:42;;;;;;;;;;;;;;;;;;5114343;27;19965;-62
2022/05/18 16:37:28;;;;;;;;;;;;;;;;;;5110157;27;20306;-63
2022/05/18 16:40:13;;;;;;;;;;;;;;;;;;5114590;27;19919;-64
2022/05/18 16:42:59;;;;;;;;;;;;;;;;;;5113499;27;19938;-62
2022/05/18 16:45:44;;;;;;;;;;;;;;;;;;5098443;28;19955;-63
2022/05/18 16:48:30;;;;;;;;;;;;;;;;;;5109463;28;20408;-62
2022/05/18 16:51:15;;;;;;;;;;;;;;;;;;5108887;27;20006;-65
2022/05/18 16:54:01;;;;;;;;;;;;;;;;;;5113620;27;19935;-64
2022/05/18 16:56:46;;;;;;;;;;;;;;;;;;5108931;28;19916;-66
2022/05/18 16:59:32;;;;;;;;;;;;;;;;;;5111455;27;19916;-67
2022/05/18 17:02:17;;;;;;;;;;;;;;;;;;5103165;28;19922;-65
2022/05/18 17:11:11;;;;;;;;;;;;;;;;;;5111392;27;19912;-67
2022/05/18 17:13:57;;;;;;;;;;;;;;;;;;5100483;27;20003;-60
2022/05/18 17:16:42;;;;;;;;;;;;;;;;;;5106029;27;19919;-70
2022/05/18 17:19:27;;;;;;;;;;;;;;;;;;5071324;28;20359;-55
2022/05/18 17:22:13;;;;;;;;;;;;;;;;;;5060873;28;19920;-54
2022/05/18 17:24:58;;;;;;;;;;;;;;;;;;5071481;28;19913;-54
2022/05/18 17:27:44;;;;;;;;;;;;;;;;;;5068891;28;19920;-54
2022/05/18 17:30:32;;;;;;;;;;;;;;;;;;5070515;28;19912;-52
2022/05/18 17:33:17;;;;;;;;;;;;;;;;;;5067996;28;19955;-62
2022/05/18 17:36:03;;;;;;;;;;;;;;;;;;5062749;28;19913;-53
2022/05/18 17:38:48;;;;;;;;;;;;;;;;;;5071845;28;19920;-50
2022/05/18 17:41:33;;;;;;;;;;;;;;;;;;5071038;28;19913;-55
2022/05/18 17:44:19;;;;;;;;;;;;;;;;;;5076976;28;20466;-56
2022/05/18 17:47:05;;;;;;;;;;;;;;;;;;5072142;28;20015;-55
2022/05/18 17:49:50;;;;;;;;;;;;;;;;;;5085923;28;19920;-53
2022/05/18 17:52:36;;;;;;;;;;;;;;;;;;5072673;28;20454;-61
2022/05/18 17:55:22;;;;;;;;;;;;;;;;;;5071783;28;20318;-69
2022/05/18 17:58:07;;;;;;;;;;;;;;;;;;5071664;28;19916;-69
2022/05/18 18:00:53;;;;;;;;;;;;;;;;;;5070851;28;19918;-69
2022/05/18 18:03:39;;;;;;;;;;;;;;;;;;5067766;28;19912;-70
2022/05/18 18:06:24;;;;;;;;;;;;;;;;;;5070950;28;20383;-71
2022/05/18 18:09:10;;;;;;;;;;;;;;;;;;5070166;28;19920;-60
2022/05/18 18:11:55;;;;;;;;;;;;;;;;;;5069342;28;20367;-62
2022/05/18 18:14:41;;;;;;;;;;;;;;;;;;5080287;28;19928;-62
2022/05/18 18:17:26;;;;;;;;;;;;;;;;;;5070338;28;19968;-61
2022/05/18 18:20:12;;;;;;;;;;;;;;;;;;5104708;27;19912;-60
2022/05/18 18:22:57;;;;;;;;;;;;;;;;;;5122268;27;19919;-60
2022/05/18 18:25:43;;;;;;;;;;;;;;;;;;5096674;27;19931;-60
2022/05/18 18:28:28;;;;;;;;;;;;;;;;;;5108972;27;19935;-60
2022/05/18 18:31:13;;;;;;;;;;;;;;;;;;5111072;27;19912;-61
2022/05/18 18:33:59;;;;;;;;;;;;;;;;;;5109657;27;20410;-61
2022/05/18 18:36:44;;;;;;;;;;;;;;;;;;5122735;27;19951;-62
2022/05/18 18:39:30;;;;;;;;;;;;;;;;;;5118305;27;20312;-62
2022/05/18 18:42:16;;;;;;;;;;;;;;;;;;5111030;27;19912;-61
2022/05/18 18:45:01;;;;;;;;;;;;;;;;;;5110778;28;19992;-59
2022/05/18 18:47:47;;;;;;;;;;;;;;;;;;5111017;27;20031;-70
2022/05/18 18:56:46;;;;;;;;;;;;;;;;;;5101647;28;19912;-64
2022/05/18 18:59:31;;;;;;;;;;;;;;;;;;5123750;27;19919;-64
2022/05/18 19:02:17;;;;;;;;;;;;;;;;;;5111952;28;20006;-64
2022/05/18 19:05:02;;;;;;;;;;;;;;;;;;5118865;27;19912;-63
2022/05/18 19:07:48;;;;;;;;;;;;;;;;;;5101821;27;19931;-65
2022/05/18 19:10:34;;;;;;;;;;;;;;;;;;5098279;28;20008;-65
2022/05/18 19:13:20;;;;;;;;;;;;;;;;;;5101799;28;19912;-64
2022/05/18 19:16:05;;;;;;;;;;;;;;;;;;5088060;28;19934;-66
2022/05/18 19:18:51;;;;;;;;;;;;;;;;;;5098040;28;19920;-65
2022/05/18 19:21:36;;;;;;;;;;;;;;;;;;5104928;28;20341;-64
2022/05/18 19:24:22;;;;;;;;;;;;;;;;;;5101188;27;20283;-73
2022/05/18 19:27:09;;;;;;;;;;;;;;;;;;5099254;28;21336;-62